createdAt,value
2023-04-18T00:00:18.727Z,100.00
2023-04-18T00:01:20.273Z,100.00
2023-04-18T00:02:21.926Z,100.00
2023-04-18T00:03:23.724Z,100.00
2023-04-18T00:04:25.686Z,100.00
2023-04-18T00:05:27.361Z,100.00
2023-04-18T00:06:28.914Z,100.00
2023-04-18T00:07:30.477Z,100.00
2023-04-18T00:08:35.592Z,100.00
2023-04-18T00:09:37.232Z,100.00
2023-04-18T00:10:38.990Z,100.00
2023-04-18T00:11:40.528Z,100.00
2023-04-18T00:12:42.188Z,100.00
2023-04-18T00:13:43.750Z,100.00
2023-04-18T00:14:45.280Z,100.00
2023-04-18T00:15:46.843Z,100.00
2023-04-18T00:16:48.471Z,100.00
2023-04-18T00:17:50.114Z,100.00
2023-04-18T00:18:52.122Z,100.00
2023-04-18T00:19:54.515Z,100.00
2023-04-18T00:20:56.339Z,100.00
2023-04-18T00:21:57.886Z,100.00
2023-04-18T00:22:59.477Z,100.00
2023-04-18T00:24:01.038Z,100.00
2023-04-18T00:25:02.575Z,100.00
2023-04-18T00:26:04.167Z,100.00
2023-04-18T00:27:05.756Z,100.00
2023-04-18T00:28:07.384Z,100.00
2023-04-18T00:29:08.947Z,100.00
2023-04-18T00:30:11.037Z,100.00
2023-04-18T00:31:12.626Z,100.00
2023-04-18T00:32:14.568Z,100.00
2023-04-18T00:33:16.241Z,100.00
2023-04-18T00:34:18.554Z,100.00
2023-04-18T00:35:20.301Z,100.00
2023-04-18T00:36:21.901Z,100.00
2023-04-18T00:37:23.480Z,100.00
2023-04-18T00:38:25.025Z,100.00
2023-04-18T00:39:26.616Z,100.00
2023-04-18T00:40:28.603Z,100.00
2023-04-18T00:41:30.799Z,100.00
2023-04-18T00:42:33.181Z,100.00
2023-04-18T00:43:34.767Z,100.00
2023-04-18T00:44:36.346Z,100.00
2023-04-18T00:45:37.901Z,100.00
2023-04-18T00:46:39.474Z,100.00
2023-04-18T00:47:41.195Z,100.00
2023-04-18T00:48:43.115Z,100.00
2023-04-18T00:49:45.526Z,100.00
2023-04-18T00:50:47.167Z,100.00
2023-04-18T00:51:49.381Z,100.00
2023-04-18T00:52:51.163Z,100.00
2023-04-18T00:53:53.838Z,100.00
2023-04-18T00:54:55.633Z,100.00
2023-04-18T00:55:57.504Z,100.00
2023-04-18T00:56:59.703Z,100.00
2023-04-18T00:58:01.530Z,100.00
2023-04-18T00:59:03.381Z,100.00
2023-04-18T01:00:07.064Z,100.00
2023-04-18T01:01:09.625Z,100.00
2023-04-18T01:02:11.618Z,100.00
2023-04-18T01:03:14.826Z,100.00
2023-04-18T01:04:17.261Z,100.00
2023-04-18T01:05:19.148Z,100.00
2023-04-18T01:06:20.887Z,100.00
2023-04-18T01:07:22.550Z,100.00
2023-04-18T01:08:24.552Z,100.00
2023-04-18T01:09:26.422Z,100.00
2023-04-18T01:10:28.875Z,100.00
2023-04-18T01:11:30.446Z,100.00
2023-04-18T01:12:32.044Z,100.00
2023-04-18T01:13:34.027Z,100.00
2023-04-18T01:14:41.765Z,100.00
2023-04-18T01:15:45.069Z,100.00
2023-04-18T01:16:46.992Z,100.00
2023-04-18T01:17:48.589Z,100.00
2023-04-18T01:18:50.145Z,100.00
2023-04-18T01:19:51.678Z,100.00
2023-04-18T01:20:54.146Z,100.00
2023-04-18T01:21:55.755Z,100.00
2023-04-18T01:22:58.419Z,100.00
2023-04-18T01:24:29.680Z,100.00
2023-04-18T01:25:31.378Z,100.00
2023-04-18T01:26:32.950Z,100.00
2023-04-18T01:27:34.481Z,100.00
2023-04-18T01:28:36.971Z,100.00
2023-04-18T01:29:39.093Z,100.00
2023-04-18T01:30:41.124Z,100.00
2023-04-18T01:31:42.742Z,100.00
2023-04-18T01:32:44.624Z,100.00
2023-04-18T01:33:46.659Z,100.00
2023-04-18T01:34:50.730Z,100.00
2023-04-18T01:35:52.357Z,100.00
2023-04-18T01:36:53.897Z,100.00
2023-04-18T01:37:55.578Z,100.00
2023-04-18T01:38:57.540Z,100.00
2023-04-18T01:39:59.147Z,100.00
2023-04-18T01:41:00.685Z,100.00
2023-04-18T01:42:02.278Z,100.00
2023-04-18T01:43:03.914Z,100.00
2023-04-18T01:44:05.498Z,100.00
2023-04-18T01:45:08.176Z,100.00
2023-04-18T01:46:09.812Z,100.00
2023-04-18T01:47:11.403Z,100.00
2023-04-18T01:48:12.976Z,100.00
2023-04-18T01:49:16.641Z,100.00
2023-04-18T01:50:18.237Z,100.00
2023-04-18T01:51:19.968Z,100.00
2023-04-18T01:52:21.569Z,100.00
2023-04-18T01:53:25.035Z,100.00
2023-04-18T01:54:26.558Z,100.00
2023-04-18T01:55:28.102Z,100.00
2023-04-18T01:56:29.662Z,100.00
2023-04-18T01:57:34.235Z,100.00
2023-04-18T01:58:36.444Z,100.00
2023-04-18T01:59:38.026Z,100.00
2023-04-18T02:00:39.654Z,100.00
2023-04-18T02:01:41.227Z,100.00
2023-04-18T02:02:43.085Z,100.00
2023-04-18T02:03:44.896Z,100.00
2023-04-18T02:04:47.704Z,100.00
2023-04-18T02:05:49.283Z,100.00
2023-04-18T02:06:50.840Z,100.00
2023-04-18T02:07:52.712Z,100.00
2023-04-18T02:08:54.262Z,100.00
2023-04-18T02:09:55.785Z,100.00
2023-04-18T02:10:57.391Z,100.00
2023-04-18T02:12:01.351Z,100.00
2023-04-18T02:13:03.188Z,100.00
2023-04-18T02:14:04.989Z,100.00
2023-04-18T02:15:07.055Z,100.00
2023-04-18T02:16:13.578Z,100.00
2023-04-18T02:17:18.355Z,100.00
2023-04-18T02:18:19.943Z,100.00
2023-04-18T02:19:21.528Z,100.00
2023-04-18T02:20:23.138Z,100.00
2023-04-18T02:21:24.727Z,100.00
2023-04-18T02:22:27.034Z,100.00
2023-04-18T02:23:28.602Z,100.00
2023-04-18T02:24:30.387Z,100.00
2023-04-18T02:25:31.941Z,100.00
2023-04-18T02:26:33.524Z,100.00
2023-04-18T02:27:35.083Z,100.00
2023-04-18T02:28:36.642Z,100.00
2023-04-18T02:29:38.202Z,100.00
2023-04-18T02:30:39.749Z,100.00
2023-04-18T02:31:41.917Z,100.00
2023-04-18T02:32:43.569Z,100.00
2023-04-18T02:33:46.791Z,100.00
2023-04-18T02:34:48.392Z,100.00
2023-04-18T02:35:51.281Z,100.00
2023-04-18T02:36:52.839Z,100.00
2023-04-18T02:37:54.446Z,100.00
2023-04-18T02:38:55.965Z,100.00
2023-04-18T02:39:57.515Z,100.00
2023-04-18T02:40:59.096Z,100.00
2023-04-18T02:42:01.928Z,100.00
2023-04-18T02:43:03.582Z,100.00
2023-04-18T02:44:06.172Z,100.00
2023-04-18T02:45:11.234Z,100.00
2023-04-18T02:46:12.889Z,100.00
2023-04-18T02:47:14.698Z,100.00
2023-04-18T02:48:19.213Z,100.00
2023-04-18T02:49:20.781Z,100.00
2023-04-18T02:50:22.849Z,100.00
2023-04-18T02:51:25.032Z,100.00
2023-04-18T02:52:28.176Z,100.00
2023-04-18T02:53:29.817Z,100.00
2023-04-18T02:54:31.381Z,100.00
2023-04-18T02:55:39.094Z,100.00
2023-04-18T02:56:40.693Z,100.00
2023-04-18T02:57:58.764Z,100.00
2023-04-18T02:59:06.991Z,100.00
2023-04-18T03:00:22.494Z,100.00
2023-04-18T03:01:49.514Z,100.00
2023-04-18T03:02:53.805Z,100.00
2023-04-18T03:04:15.842Z,100.00
2023-04-18T03:05:22.142Z,100.00
2023-04-18T03:06:25.775Z,100.00
2023-04-18T03:07:27.870Z,100.00
2023-04-18T03:08:29.441Z,100.00
2023-04-18T03:09:31.157Z,100.00
2023-04-18T03:10:38.994Z,100.00
2023-04-18T03:11:40.667Z,100.00
2023-04-18T03:12:42.482Z,100.00
2023-04-18T03:13:45.290Z,100.00
2023-04-18T03:14:47.314Z,100.00
2023-04-18T03:15:49.428Z,100.00
2023-04-18T03:16:53.076Z,100.00
2023-04-18T03:17:59.902Z,100.00
2023-04-18T03:19:05.285Z,100.00
2023-04-18T03:20:07.989Z,100.00
2023-04-18T03:21:09.569Z,100.00
2023-04-18T03:22:11.653Z,100.00
2023-04-18T03:23:20.551Z,100.00
2023-04-18T03:24:22.131Z,100.00
2023-04-18T03:25:26.439Z,100.00
2023-04-18T03:26:28.789Z,100.00
2023-04-18T03:27:31.423Z,100.00
2023-04-18T03:28:33.112Z,100.00
2023-04-18T03:29:35.140Z,100.00
2023-04-18T03:30:36.692Z,100.00
2023-04-18T03:31:39.934Z,100.00
2023-04-18T03:32:41.667Z,100.00
2023-04-18T03:33:43.296Z,100.00
2023-04-18T03:34:45.430Z,100.00
2023-04-18T03:35:47.043Z,100.00
2023-04-18T03:36:48.798Z,100.00
2023-04-18T03:37:51.574Z,100.00
2023-04-18T03:39:02.888Z,100.00
2023-04-18T03:40:04.914Z,100.00
2023-04-18T03:41:06.736Z,100.00
2023-04-18T03:42:11.145Z,100.00
2023-04-18T03:43:13.502Z,100.00
2023-04-18T03:44:16.075Z,100.00
2023-04-18T03:45:17.797Z,100.00
2023-04-18T03:46:21.341Z,100.00
2023-04-18T03:47:25.784Z,100.00
2023-04-18T03:48:31.059Z,100.00
2023-04-18T03:49:36.133Z,100.00
2023-04-18T03:50:38.467Z,100.00
2023-04-18T03:51:47.021Z,100.00
2023-04-18T03:52:48.600Z,100.00
2023-04-18T03:53:52.044Z,100.00
2023-04-18T03:54:53.666Z,100.00
2023-04-18T03:55:59.518Z,100.00
2023-04-18T03:57:15.542Z,100.00
2023-04-18T03:58:17.149Z,100.00
2023-04-18T03:59:19.604Z,100.00
2023-04-18T04:00:24.179Z,100.00
2023-04-18T04:01:33.472Z,100.00
2023-04-18T04:02:35.191Z,100.00
2023-04-18T04:03:37.264Z,100.00
2023-04-18T04:04:40.310Z,100.00
2023-04-18T04:05:42.097Z,100.00
2023-04-18T04:06:43.707Z,100.00
2023-04-18T04:07:45.336Z,100.00
2023-04-18T04:08:47.428Z,100.00
2023-04-18T04:09:52.774Z,100.00
2023-04-18T04:10:54.434Z,100.00
2023-04-18T04:11:56.812Z,100.00
2023-04-18T04:12:58.798Z,100.00
2023-04-18T04:14:01.054Z,100.00
2023-04-18T04:15:12.853Z,100.00
2023-04-18T04:16:21.393Z,100.00
2023-04-18T04:17:25.413Z,100.00
2023-04-18T04:18:27.774Z,100.00
2023-04-18T04:19:30.599Z,100.00
2023-04-18T04:20:53.182Z,100.00
2023-04-18T04:22:06.399Z,100.00
2023-04-18T04:23:08.110Z,100.00
2023-04-18T04:24:11.519Z,100.00
2023-04-18T04:25:17.375Z,100.00
2023-04-18T04:26:18.965Z,100.00
2023-04-18T04:27:30.824Z,100.00
2023-04-18T04:28:32.461Z,100.00
2023-04-18T04:29:37.285Z,100.00
2023-04-18T04:30:38.870Z,100.00
2023-04-18T04:31:40.607Z,100.00
2023-04-18T04:32:42.622Z,100.00
2023-04-18T04:33:45.192Z,100.00
2023-04-18T04:34:51.577Z,100.00
2023-04-18T04:35:54.369Z,100.00
2023-04-18T04:36:56.055Z,100.00
2023-04-18T04:37:59.117Z,100.00
2023-04-18T04:39:07.119Z,100.00
2023-04-18T04:40:23.850Z,100.00
2023-04-18T04:41:39.806Z,100.00
2023-04-18T04:42:41.893Z,100.00
2023-04-18T04:43:50.031Z,100.00
2023-04-18T04:44:54.598Z,100.00
2023-04-18T04:45:57.385Z,100.00
2023-04-18T04:46:58.954Z,100.00
2023-04-18T04:48:06.561Z,100.00
2023-04-18T04:49:08.122Z,100.00
2023-04-18T04:50:10.201Z,100.00
2023-04-18T04:51:11.916Z,100.00
2023-04-18T04:52:13.543Z,100.00
2023-04-18T04:53:15.155Z,100.00
2023-04-18T04:54:17.062Z,100.00
2023-04-18T04:55:18.814Z,100.00
2023-04-18T04:56:20.444Z,100.00
2023-04-18T04:57:22.187Z,100.00
2023-04-18T04:58:23.834Z,100.00
2023-04-18T04:59:48.008Z,100.00
2023-04-18T05:00:49.638Z,100.00
2023-04-18T05:01:51.288Z,100.00
2023-04-18T05:02:55.234Z,100.00
2023-04-18T05:03:57.908Z,100.00
2023-04-18T05:04:59.533Z,100.00
2023-04-18T05:06:01.188Z,100.00
2023-04-18T05:07:02.950Z,100.00
2023-04-18T05:08:04.984Z,100.00
2023-04-18T05:09:06.567Z,100.00
2023-04-18T05:10:08.416Z,100.00
2023-04-18T05:11:09.983Z,100.00
2023-04-18T05:12:11.587Z,100.00
2023-04-18T05:13:13.196Z,100.00
2023-04-18T05:14:15.128Z,100.00
2023-04-18T05:15:18.746Z,100.00
2023-04-18T05:16:20.742Z,100.00
2023-04-18T05:17:22.724Z,100.00
2023-04-18T05:18:24.508Z,100.00
2023-04-18T05:19:26.077Z,100.00
2023-04-18T05:20:27.655Z,100.00
2023-04-18T05:21:29.373Z,100.00
2023-04-18T05:22:31.016Z,100.00
2023-04-18T05:23:33.410Z,100.00
2023-04-18T05:24:35.143Z,100.00
2023-04-18T05:25:36.861Z,100.00
2023-04-18T05:26:38.519Z,100.00
2023-04-18T05:27:40.549Z,100.00
2023-04-18T05:28:42.505Z,100.00
2023-04-18T05:29:44.125Z,100.00
2023-04-18T05:30:45.948Z,100.00
2023-04-18T05:31:47.563Z,100.00
2023-04-18T05:32:49.203Z,100.00
2023-04-18T05:33:50.794Z,100.00
2023-04-18T05:34:52.342Z,100.00
2023-04-18T05:35:54.404Z,100.00
2023-04-18T05:36:56.602Z,100.00
2023-04-18T05:37:58.785Z,100.00
2023-04-18T05:39:00.397Z,100.00
2023-04-18T05:40:01.956Z,100.00
2023-04-18T05:41:03.510Z,100.00
2023-04-18T05:42:05.139Z,100.00
2023-04-18T05:43:06.812Z,100.00
2023-04-18T05:44:08.571Z,100.00
2023-04-18T05:45:10.523Z,100.00
2023-04-18T05:46:12.138Z,100.00
2023-04-18T05:47:13.728Z,100.00
2023-04-18T05:48:15.280Z,100.00
2023-04-18T05:49:16.831Z,100.00
2023-04-18T05:50:18.392Z,100.00
2023-04-18T05:51:19.966Z,100.00
2023-04-18T05:52:21.761Z,100.00
2023-04-18T05:53:23.499Z,100.00
2023-04-18T05:54:25.180Z,100.00
2023-04-18T05:55:26.743Z,100.00
2023-04-18T05:56:28.377Z,100.00
2023-04-18T05:57:29.956Z,100.00
2023-04-18T05:58:31.552Z,100.00
2023-04-18T05:59:33.138Z,100.00
2023-04-18T06:00:35.088Z,100.00
2023-04-18T06:01:36.599Z,100.00
2023-04-18T06:02:38.312Z,100.00
2023-04-18T06:03:40.819Z,100.00
2023-04-18T06:04:43.016Z,100.00
2023-04-18T06:05:44.848Z,100.00
2023-04-18T06:06:46.446Z,100.00
2023-04-18T06:07:47.993Z,100.00
2023-04-18T06:08:49.557Z,100.00
2023-04-18T06:09:51.198Z,100.00
2023-04-18T06:10:52.773Z,100.00
2023-04-18T06:11:54.344Z,100.00
2023-04-18T06:12:55.886Z,100.00
2023-04-18T06:13:57.409Z,100.00
2023-04-18T06:14:58.986Z,100.00
2023-04-18T06:16:00.778Z,100.00
2023-04-18T06:17:03.037Z,100.00
2023-04-18T06:18:04.929Z,100.00
2023-04-18T06:19:06.597Z,100.00
2023-04-18T06:20:09.484Z,100.00
2023-04-18T06:21:11.094Z,100.00
2023-04-18T06:22:12.661Z,100.00
2023-04-18T06:23:14.209Z,100.00
2023-04-18T06:24:16.266Z,100.00
2023-04-18T06:25:18.121Z,100.00
2023-04-18T06:26:19.695Z,100.00
2023-04-18T06:27:30.487Z,100.00
2023-04-18T06:28:33.377Z,100.00
2023-04-18T06:29:36.037Z,100.00
2023-04-18T06:30:38.357Z,100.00
2023-04-18T06:31:39.941Z,100.00
2023-04-18T06:32:41.597Z,100.00
2023-04-18T06:33:43.144Z,100.00
2023-04-18T06:34:44.743Z,100.00
2023-04-18T06:35:46.491Z,100.00
2023-04-18T06:42:11.397Z,100.00
2023-04-18T06:54:12.231Z,100.00
2023-04-18T06:55:13.978Z,100.00
2023-04-18T06:56:15.593Z,100.00
2023-04-18T06:57:17.224Z,100.00
2023-04-18T06:58:18.786Z,100.00
2023-04-18T06:59:20.614Z,100.00
2023-04-18T07:00:22.200Z,100.00
2023-04-18T07:01:23.787Z,100.00
2023-04-18T07:02:25.459Z,100.00
2023-04-18T07:03:27.157Z,100.00
2023-04-18T07:04:28.893Z,100.00
2023-04-18T07:05:30.473Z,100.00
2023-04-18T07:06:32.747Z,100.00
2023-04-18T07:07:34.927Z,100.00
2023-04-18T07:08:36.690Z,100.00
2023-04-18T07:09:40.307Z,100.00
2023-04-18T07:10:42.586Z,100.00
2023-04-18T07:11:44.268Z,100.00
2023-04-18T07:12:45.831Z,100.00
2023-04-18T07:13:47.401Z,100.00
2023-04-18T07:14:49.050Z,100.00
2023-04-18T07:15:50.604Z,100.00
2023-04-18T07:16:52.299Z,100.00
2023-04-18T07:17:54.008Z,100.00
2023-04-18T07:18:55.602Z,100.00
2023-04-18T07:19:57.171Z,100.00
2023-04-18T07:20:58.700Z,100.00
2023-04-18T07:22:00.666Z,100.00
2023-04-18T07:23:02.222Z,100.00
2023-04-18T07:24:03.777Z,100.00
2023-04-18T07:25:05.560Z,100.00
2023-04-18T07:26:07.240Z,100.00
2023-04-18T07:27:08.797Z,100.00
2023-04-18T07:28:10.390Z,100.00
2023-04-18T07:29:11.919Z,100.00
2023-04-18T07:30:13.655Z,100.00
2023-04-18T07:31:15.349Z,100.00
2023-04-18T07:32:16.931Z,100.00
2023-04-18T07:33:18.498Z,100.00
2023-04-18T07:34:20.113Z,100.00
2023-04-18T07:35:21.857Z,100.00
2023-04-18T07:36:23.608Z,100.00
2023-04-18T07:37:25.311Z,100.00
2023-04-18T07:38:27.511Z,100.00
2023-04-18T07:39:29.041Z,100.00
2023-04-18T07:40:30.630Z,100.00
2023-04-18T07:41:33.033Z,100.00
2023-04-18T07:42:34.776Z,100.00
2023-04-18T07:43:36.676Z,100.00
2023-04-18T07:45:48.862Z,100.00
2023-04-18T07:48:47.014Z,100.00
2023-04-18T07:53:45.262Z,100.00
2023-04-18T07:54:47.157Z,100.00
2023-04-18T07:55:49.883Z,100.00
2023-04-18T07:56:51.443Z,100.00
2023-04-18T08:04:54.239Z,100.00
2023-04-18T08:07:18.525Z,100.00
2023-04-18T08:14:04.458Z,100.00
2023-04-18T08:30:11.976Z,100.00
2023-04-18T08:34:25.373Z,100.00
2023-04-18T08:36:51.280Z,100.00
2023-04-18T08:38:02.621Z,100.00
2023-04-18T08:39:06.086Z,100.00
2023-04-18T08:40:08.913Z,100.00
2023-04-18T09:00:42.985Z,100.00
2023-04-18T09:01:55.818Z,100.00
2023-04-18T09:02:57.685Z,100.00
2023-04-18T09:03:59.715Z,100.00
2023-04-18T09:05:20.013Z,100.00
2023-04-18T09:27:12.041Z,100.00
2023-04-18T09:28:33.440Z,100.00
2023-04-18T09:29:46.479Z,100.00
2023-04-18T09:30:53.387Z,100.00
2023-04-18T09:33:07.564Z,100.00
2023-04-18T09:34:20.848Z,100.00
2023-04-18T09:35:25.578Z,100.00
2023-04-18T09:36:27.690Z,100.00
2023-04-18T09:38:47.727Z,100.00
2023-04-18T09:39:49.375Z,100.00
2023-04-18T09:41:07.763Z,100.00
2023-04-18T09:42:09.866Z,100.00
2023-04-18T09:44:28.501Z,100.00
2023-04-18T09:46:53.261Z,100.00
2023-04-18T09:49:41.297Z,100.00
2023-04-18T09:50:44.234Z,100.00
2023-04-18T09:51:46.082Z,100.00
2023-04-18T09:52:48.640Z,100.00
2023-04-18T09:53:50.502Z,100.00
2023-04-18T09:54:56.271Z,100.00
2023-04-18T09:55:58.353Z,100.00
2023-04-18T09:57:02.579Z,100.00
2023-04-18T09:58:05.105Z,100.00
2023-04-18T09:59:08.535Z,100.00
2023-04-18T10:00:14.911Z,100.00
2023-04-18T10:01:16.614Z,100.00
2023-04-18T10:02:23.032Z,100.00
2023-04-18T10:03:30.096Z,100.00
2023-04-18T10:04:32.845Z,100.00
2023-04-18T10:05:36.268Z,100.00
2023-04-18T10:06:38.566Z,100.00
2023-04-18T10:07:40.901Z,100.00
2023-04-18T10:08:48.940Z,100.00
2023-04-18T10:11:20.596Z,100.00
2023-04-18T10:12:22.600Z,100.00
2023-04-18T10:13:25.608Z,100.00
2023-04-18T10:14:28.481Z,100.00
2023-04-18T10:16:41.810Z,100.00
2023-04-18T10:18:02.700Z,100.00
2023-04-18T10:19:30.846Z,100.00
2023-04-18T10:20:34.162Z,100.00
2023-04-18T10:21:35.773Z,100.00
2023-04-18T10:22:37.414Z,100.00
2023-04-18T10:23:39.834Z,100.00
2023-04-18T10:24:48.740Z,100.00
2023-04-18T10:25:50.944Z,100.00
2023-04-18T10:26:52.566Z,100.00
2023-04-18T10:27:56.095Z,100.00
2023-04-18T10:28:58.711Z,100.00
2023-04-18T10:30:00.359Z,100.00
2023-04-18T10:31:03.378Z,100.00
2023-04-18T10:32:07.875Z,100.00
2023-04-18T10:34:29.158Z,100.00
2023-04-18T10:35:34.099Z,100.00
2023-04-18T10:36:35.676Z,100.00
2023-04-18T10:37:52.466Z,100.00
2023-04-18T10:39:00.509Z,100.00
2023-04-18T10:40:02.588Z,100.00
2023-04-18T10:41:13.028Z,100.00
2023-04-18T10:42:14.644Z,100.00
2023-04-18T10:43:16.242Z,100.00
2023-04-18T10:44:22.052Z,100.00
2023-04-18T10:45:25.203Z,100.00
2023-04-18T10:46:32.412Z,100.00
2023-04-18T10:47:34.602Z,100.00
2023-04-18T10:48:38.578Z,100.00
2023-04-18T10:49:53.910Z,100.00
2023-04-18T10:51:19.292Z,100.00
2023-04-18T10:52:20.934Z,100.00
2023-04-18T10:53:22.825Z,100.00
2023-04-18T10:54:49.059Z,100.00
2023-04-18T10:55:54.958Z,100.00
2023-04-18T10:57:00.914Z,100.00
2023-04-18T10:58:03.606Z,100.00
2023-04-18T10:59:05.673Z,99.29
2023-04-18T11:00:08.892Z,100.00
2023-04-18T11:01:14.428Z,100.00
2023-04-18T11:02:26.517Z,100.00
2023-04-18T11:03:33.937Z,100.00
2023-04-18T11:04:35.806Z,100.00
2023-04-18T11:05:37.468Z,100.00
2023-04-18T11:06:53.420Z,100.00
2023-04-18T11:07:55.556Z,100.00
2023-04-18T11:09:13.320Z,100.00
2023-04-18T11:10:23.388Z,100.00
2023-04-18T11:11:25.091Z,100.00
2023-04-18T11:13:35.612Z,100.00
2023-04-18T11:14:45.038Z,100.00
2023-04-18T11:15:46.576Z,100.00
2023-04-18T11:16:48.154Z,100.00
2023-04-18T11:18:03.703Z,100.00
2023-04-18T11:19:21.654Z,100.00
2023-04-18T11:20:23.593Z,100.00
2023-04-18T11:21:28.092Z,100.00
2023-04-18T11:22:30.784Z,100.00
2023-04-18T11:23:32.414Z,100.00
2023-04-18T11:24:34.013Z,100.00
2023-04-18T11:25:35.558Z,100.00
2023-04-18T11:26:38.293Z,100.00
2023-04-18T11:28:41.627Z,100.00
2023-04-18T11:29:43.195Z,100.00
2023-04-18T11:30:44.791Z,100.00
2023-04-18T11:31:56.605Z,98.86
2023-04-18T11:32:59.324Z,98.41
2023-04-18T11:34:02.008Z,99.96
2023-04-18T11:35:03.777Z,99.40
2023-04-18T11:36:06.253Z,99.61
2023-04-18T11:37:07.802Z,100.00
2023-04-18T11:38:12.432Z,100.00
2023-04-18T11:39:14.041Z,100.00
2023-04-18T11:40:16.001Z,99.04
2023-04-18T11:41:17.750Z,99.56
2023-04-18T11:47:24.073Z,99.59
2023-04-18T11:52:07.031Z,97.98
2023-04-18T11:53:08.634Z,98.14
2023-04-18T11:54:42.719Z,94.59
2023-04-18T11:55:55.069Z,95.98
2023-04-18T11:56:56.686Z,97.18
2023-04-18T11:57:59.852Z,95.60
2023-04-18T11:59:08.824Z,98.23
2023-04-18T12:00:10.976Z,95.25
2023-04-18T12:01:17.970Z,96.03
2023-04-18T12:02:21.602Z,94.50
2023-04-18T12:03:23.682Z,95.36
2023-04-18T12:04:25.673Z,96.88
2023-04-18T12:05:31.132Z,96.92
2023-04-18T12:06:53.403Z,94.53
2023-04-18T12:07:55.322Z,93.23
2023-04-18T12:08:59.771Z,90.31
2023-04-18T12:10:01.963Z,89.24
2023-04-18T12:11:03.605Z,87.98
2023-04-18T12:12:05.272Z,91.04
2023-04-18T12:13:08.244Z,90.42
2023-04-18T12:14:23.330Z,91.27
2023-04-18T12:16:46.359Z,89.45
2023-04-18T12:17:50.715Z,87.50
2023-04-18T12:18:59.004Z,85.65
2023-04-18T12:20:05.205Z,86.42
2023-04-18T12:21:06.807Z,88.73
2023-04-18T12:22:08.426Z,89.76
2023-04-18T12:23:10.025Z,89.83
2023-04-18T12:24:15.322Z,91.40
2023-04-18T12:25:21.568Z,92.84
2023-04-18T12:26:24.334Z,93.06
2023-04-18T12:27:27.083Z,89.29
2023-04-18T12:28:28.705Z,86.53
2023-04-18T12:29:30.306Z,84.37
2023-04-18T12:30:36.848Z,82.70
2023-04-18T12:31:43.066Z,84.29
2023-04-18T12:32:44.634Z,82.24
2023-04-18T12:33:46.352Z,81.80
2023-04-18T12:34:48.077Z,81.36
2023-04-18T12:35:50.078Z,80.89
2023-04-18T12:36:51.729Z,81.87
2023-04-18T12:37:55.511Z,82.15
2023-04-18T12:38:57.343Z,76.34
2023-04-18T12:39:59.238Z,78.63
2023-04-18T12:41:00.812Z,78.75
2023-04-18T12:42:02.354Z,77.39
2023-04-18T12:43:04.073Z,79.35
2023-04-18T12:44:05.833Z,77.54
2023-04-18T12:45:10.029Z,78.14
2023-04-18T12:46:11.625Z,81.27
2023-04-18T12:47:13.259Z,80.26
2023-04-18T12:48:14.964Z,80.87
2023-04-18T12:49:16.557Z,80.01
2023-04-18T12:50:27.255Z,80.00
2023-04-18T12:51:28.986Z,78.32
2023-04-18T12:55:28.688Z,82.06
2023-04-18T12:56:30.303Z,79.55
2023-04-18T12:57:32.185Z,82.39
2023-04-18T13:07:40.918Z,79.06
2023-04-18T13:08:42.521Z,80.60
2023-04-18T13:09:44.993Z,80.30
2023-04-18T13:10:46.788Z,80.87
2023-04-18T13:14:13.504Z,75.29
2023-04-18T13:15:15.261Z,75.68
2023-04-18T13:16:16.948Z,77.02
2023-04-18T13:17:18.614Z,77.80
2023-04-18T13:18:20.168Z,77.70
2023-04-18T13:19:21.778Z,78.50
2023-04-18T13:20:23.374Z,81.10
2023-04-18T13:21:24.928Z,76.35
2023-04-18T13:22:26.628Z,77.32
2023-04-18T13:23:28.352Z,79.26
2023-04-18T13:24:30.010Z,76.36
2023-04-18T13:25:31.652Z,76.90
2023-04-18T13:26:33.226Z,76.92
2023-04-18T13:27:34.847Z,76.26
2023-04-18T13:28:36.460Z,77.03
2023-04-18T13:29:42.233Z,77.14
2023-04-18T13:30:43.861Z,79.60
2023-04-18T13:31:45.641Z,84.07
2023-04-18T13:41:11.518Z,76.77
2023-04-18T13:42:16.172Z,72.68
2023-04-18T13:43:18.080Z,74.20
2023-04-18T13:44:20.092Z,76.33
2023-04-18T13:45:21.681Z,77.36
2023-04-18T13:46:23.378Z,74.50
2023-04-18T13:47:24.977Z,74.85
2023-04-18T13:48:26.660Z,72.92
2023-04-18T13:49:28.266Z,72.24
2023-04-18T13:50:29.936Z,71.67
2023-04-18T13:51:31.523Z,75.21
2023-04-18T13:52:33.523Z,74.91
2023-04-18T13:53:35.366Z,72.71
2023-04-18T13:54:37.047Z,72.71
2023-04-18T13:55:38.780Z,72.22
2023-04-18T13:56:40.638Z,74.61
2023-04-18T13:57:42.194Z,70.06
2023-04-18T13:58:44.086Z,71.05
2023-04-18T13:59:45.747Z,73.47
2023-04-18T14:00:47.349Z,75.01
2023-04-18T14:01:49.235Z,72.97
2023-04-18T14:02:51.150Z,73.76
2023-04-18T14:03:53.014Z,72.50
2023-04-18T14:04:55.034Z,74.63
2023-04-18T14:05:56.678Z,75.92
2023-04-18T14:06:58.277Z,74.69
2023-04-18T14:07:59.878Z,72.17
2023-04-18T14:09:01.483Z,74.88
2023-04-18T14:10:03.608Z,75.98
2023-04-18T14:11:05.307Z,74.81
2023-04-18T14:12:07.076Z,74.19
2023-04-18T14:13:08.667Z,74.45
2023-04-18T14:14:10.204Z,75.98
2023-04-18T14:15:14.636Z,77.95
2023-04-18T14:16:16.490Z,74.30
2023-04-18T14:17:18.099Z,72.40
2023-04-18T14:18:19.643Z,72.54
2023-04-18T14:19:21.231Z,74.94
2023-04-18T14:20:22.781Z,76.78
2023-04-18T14:21:24.369Z,75.66
2023-04-18T14:22:26.121Z,76.22
2023-04-18T14:23:27.783Z,75.02
2023-04-18T14:24:29.423Z,76.82
2023-04-18T14:25:30.994Z,78.88
2023-04-18T14:26:32.590Z,75.17
2023-04-18T14:27:34.174Z,74.82
2023-04-18T14:28:35.764Z,75.37
2023-04-18T14:29:37.335Z,76.28
2023-04-18T14:30:39.930Z,77.04
2023-04-18T14:31:41.564Z,73.66
2023-04-18T14:32:43.254Z,74.22
2023-04-18T14:33:44.838Z,75.45
2023-04-18T14:34:46.706Z,76.52
2023-04-18T14:35:48.279Z,75.45
2023-04-18T14:36:50.099Z,76.23
2023-04-18T14:37:51.670Z,76.85
2023-04-18T14:38:53.568Z,78.04
2023-04-18T14:39:55.356Z,76.51
2023-04-18T14:40:58.248Z,77.55
2023-04-18T14:42:00.157Z,77.50
2023-04-18T14:43:02.006Z,76.70
2023-04-18T14:44:03.804Z,77.71
2023-04-18T14:45:06.083Z,77.59
2023-04-18T14:46:16.834Z,80.22
2023-04-18T14:47:18.596Z,76.98
2023-04-18T14:48:20.530Z,74.55
2023-04-18T14:49:22.213Z,75.51
2023-04-18T14:50:23.835Z,77.31
2023-04-18T14:51:25.594Z,74.86
2023-04-18T14:52:27.348Z,74.70
2023-04-18T14:53:29.154Z,75.82
2023-04-18T14:54:32.603Z,76.38
2023-04-18T14:55:34.361Z,75.74
2023-04-18T14:56:35.909Z,75.52
2023-04-18T14:57:38.208Z,76.74
2023-04-18T14:58:39.750Z,78.66
2023-04-18T14:59:41.605Z,76.87
2023-04-18T15:00:43.165Z,78.88
2023-04-18T15:01:44.769Z,78.79
2023-04-18T15:02:47.141Z,77.29
2023-04-18T15:03:50.833Z,76.03
2023-04-18T15:15:37.168Z,71.76
2023-04-18T15:16:38.782Z,70.60
2023-04-18T15:17:40.931Z,73.55
2023-04-18T15:18:42.587Z,73.94
2023-04-18T15:19:44.469Z,74.68
2023-04-18T15:20:46.278Z,75.86
2023-04-18T15:21:47.895Z,72.58
2023-04-18T15:22:49.459Z,72.25
2023-04-18T15:23:51.183Z,71.56
2023-04-18T15:24:52.847Z,74.19
2023-04-18T15:25:54.891Z,73.13
2023-04-18T15:26:56.764Z,71.32
2023-04-18T15:27:58.393Z,73.06
2023-04-18T15:29:02.703Z,74.01
2023-04-18T15:30:04.904Z,75.57
2023-04-18T15:31:06.995Z,76.41
2023-04-18T15:32:08.879Z,74.58
2023-04-18T15:33:10.960Z,76.64
2023-04-18T15:34:12.705Z,75.95
2023-04-18T15:35:14.511Z,76.83
2023-04-18T15:36:16.325Z,76.96
2023-04-18T15:37:18.097Z,78.21
2023-04-18T15:38:19.810Z,78.24
2023-04-18T15:39:21.547Z,76.21
2023-04-18T15:40:23.837Z,77.07
2023-04-18T15:41:25.758Z,77.32
2023-04-18T15:42:27.580Z,76.34
2023-04-18T15:43:29.416Z,75.72
2023-04-18T15:44:31.007Z,79.22
2023-04-18T15:45:33.294Z,79.75
2023-04-18T15:46:36.983Z,84.01
2023-04-18T15:47:38.891Z,89.96
2023-04-18T15:48:40.529Z,94.19